ABB PE Ratio 2006-2018 | ABB

Current and historical p/e ratio for ABB (ABB) from 2006 to 2018. The price to earnings ratio is calculated by taking the latest closing price and dividing it by the most recent earnings per share (EPS) number. The PE ratio is a simple way to assess whether a stock is over or under valued and is the most widely used valuation measure. ABB PE ratio as of November 16, 2018 is 14.92.
ABB PE Ratio Historical Data
Date Stock Price TTM Net EPS PE Ratio
2018-11-16 20.14 19.18
2018-09-30 23.63 $1.05 22.50
2018-06-30 21.77 $1.04 20.93
2018-03-31 22.89 $0.96 23.85
2017-12-31 25.86 $1.03 25.11
2017-09-30 23.87 $1.08 22.10
2017-06-30 24.01 $1.08 22.23
2017-03-31 21.81 $1.03 21.18
2016-12-31 19.64 $0.92 21.35
2016-09-30 20.98 $0.78 26.90
2016-06-30 18.49 $0.77 24.01
2016-03-31 18.10 $0.84 21.55
2015-12-31 16.53 $0.86 19.22
2015-09-30 16.47 $1.07 15.39
2015-06-30 19.46 $1.13 17.23
2015-03-31 19.73 $1.15 17.16
2014-12-31 19.72 $1.14 17.30
2014-09-30 20.89 $1.07 19.52
2014-06-30 21.46 $1.11 19.33
2014-03-31 24.04 $1.16 20.73
2013-12-31 24.76 $1.21 20.46
2013-09-30 21.99 $1.24 17.73
2013-06-30 20.19 $1.21 16.69
2013-03-31 20.55 $1.17 17.56
2012-12-31 18.77 $1.18 15.90
2012-09-30 16.88 $1.28 13.19
2012-06-30 14.73 $1.29 11.42
2012-03-31 17.74 $1.39 12.76
2011-12-31 16.36 $1.38 11.86
2011-09-30 14.84 $1.33 11.16
2011-06-30 22.55 $1.33 16.96
2011-03-31 20.52 $1.21 16.96
2010-12-31 19.05 $1.12 17.01
2010-09-30 17.92 $1.05 17.07
2010-06-30 14.28 $1.16 12.31
2010-03-31 18.05 $1.19 15.17
2009-12-31 15.79 $1.28 12.33
2009-09-30 16.57 $1.13 14.66
2009-06-30 12.70 $1.08 11.76
2009-03-31 11.22 $1.20 9.35
2008-12-31 12.08 $1.35 8.95
2008-09-30 15.61 $2.02 7.73
2008-06-30 22.42 $1.94 11.55
2008-03-31 21.31 $1.84 11.58
2007-12-31 22.80 $1.64 13.90
2007-09-30 20.76 $1.06 19.59
2007-06-30 17.89 $0.92 19.44
2007-03-31 13.47 $0.77 17.49
2006-12-31 14.09 $0.63 22.37
Sector Industry Market Cap Revenue
Industrial Products Electrical Machinery $43.072B $34.312B
ABB Ltd, headquartered in Zurich, Switzerland, is engaged in providing power and automation technologies for its utility and industrial customers. The Company provides a range of products, systems, solutions and services that are designed to improve power grid reliability, increase industrial productivity and enhance energy efficiency. ABB is focused on power transmission, distribution and power-plant automation and serves electric, gas and water utilities, as well as industrial and commercial customers. Its Power Products division manufactures three categories of products: High-voltage Products, Medium-voltage Products and Transformers. The key technologies include high- and medium-voltage switchgear, circuit breakers for various current and voltage levels, power and distribution transformers, as well as sensors and products to automate and control electrical and other utility networks. ABB Ltd is structured into four regions: Europe, the Americas, Asia and the Middle East and Africa (MEA).
Stock Name Country Market Cap PE Ratio
Emerson Electric (EMR) United States $43.754B 22.39
Eaton (ETN) Ireland $32.176B 14.25
A O Smith (AOS) United States $7.819B 18.63
Enersys (ENS) United States $3.617B 17.77
Regal Beloit (RBC) United States $3.385B 13.65
Rexnord (RXN) United States $3.035B 17.47
II-VI (IIVI) United States $2.361B 21.97
Franklin Electric (FELE) United States $2.111B 20.90
ESCO Technologies (ESE) United States $1.776B 24.84
SPX FLOW (FLOW) United States $1.541B 16.46
AZZ (AZZ) United States $1.280B 41.99
Plug Power (PLUG) United States $0.429B 0.00
Powell Industries (POWL) United States $0.374B 0.00
Energous (WATT) United States $0.223B 0.00
Capstone Turbine (CPST) United States $0.053B 0.00
Pioneer Power Solutions (PPSI) United States $0.052B 10.35
CUI Global (CUI) United States $0.047B 0.00
Ideal Power (IPWR) United States $0.005B 0.00
American Electric Technologies (AETI) United States $0.004B 0.00